Benjamin, Texas
Current Conditions -  °F | °C
As of 9:56 AM on Friday 21 Nov 2014 (Local Time) from KF05 Reporting Station
Broken Clouds Broken Clouds  
Wind Chill: 43°   Ceiling: 1500
Heat Index: 43°   Visibility: 10mi
Dew Point: 39°   Wind: 3mph
Humidity: 87%   Direction: 250°WSW
Pressure: 30.1"   Gusts: NA
Location:  33.58°N, 99.79°W
Report Text: KF05 211556Z AUTO 25003KT 10SM BKN015 06/04 A3010 RMK AO2
Loading
Personal Weather Stations






























Interactive Weather Map New forecast layout! Learn more

10-Day Weather Forecast

Advertisements
Track Severe Weather on mobile